Time;durP1;ratioP1;P1;durP2;ratioP2;P2;SDS_P1;SDS_P2;PMS_P1;PMS_P2;Temp;Humidity;BMP_temperature;BMP_pressure;BME280_temperature;BME280_humidity;BME280_pressure;Samples;Min_cycle;Max_cycle;Signal;HPM_P1;HPM_P2
2022/06/04 00:01:12;;;;;;;4.65;2.25;;;;;;;16.55;52.51;101799.19;5050665;28;20020;-56
2022/06/04 00:03:38;;;;;;;4.90;2.00;;;;;;;16.53;52.33;101803.91;5043407;28;20025;-55
2022/06/04 00:06:04;;;;;;;5.82;2.00;;;;;;;16.46;52.52;101801.09;5039876;28;20032;-57
2022/06/04 00:08:30;;;;;;;5.82;2.25;;;;;;;16.46;52.38;101803.78;5048649;28;20029;-56
2022/06/04 00:16:27;;;;;;;6.68;2.00;;;;;;;16.34;52.74;101794.56;5047927;28;20058;-56
2022/06/04 00:18:52;;;;;;;4.53;2.40;;;;;;;16.32;52.83;101791.22;5047120;28;20515;-56
2022/06/04 00:21:18;;;;;;;3.38;1.90;;;;;;;16.28;52.65;101788.09;5048265;28;20029;-57
2022/06/04 00:23:43;;;;;;;4.97;2.03;;;;;;;16.26;52.90;101784.75;5048849;28;20538;-56
2022/06/04 00:26:13;;;;;;;6.20;2.28;;;;;;;16.21;52.71;101787.19;5047635;28;20105;-56
2022/06/04 00:28:39;;;;;;;4.10;2.03;;;;;;;16.16;52.81;101786.88;5049067;28;21330;-57
2022/06/04 00:31:04;;;;;;;4.55;2.58;;;;;;;16.14;52.74;101793.44;5048577;28;20391;-56
2022/06/04 00:33:30;;;;;;;3.50;2.10;;;;;;;16.11;53.08;101792.78;5047226;28;20397;-56
2022/06/04 00:35:58;;;;;;;3.58;2.10;;;;;;;16.09;53.21;101794.00;5049415;28;20037;-56
2022/06/04 00:38:26;;;;;;;3.53;2.58;;;;;;;16.03;53.24;101792.88;5047656;28;20032;-56
2022/06/04 00:41:16;;;;;;;3.10;2.25;;;;;;;16.04;53.21;101791.88;5049049;28;20082;-56
2022/06/04 00:44:05;;;;;;;2.83;2.20;;;;;;;16.00;53.11;101797.78;5044105;28;20126;-56
2022/06/04 00:46:37;;;;;;;2.95;2.38;;;;;;;15.91;53.48;101789.00;5045604;28;20036;-57
2022/06/04 00:49:02;;;;;;;7.40;2.30;;;;;;;15.89;53.29;101792.84;5046009;28;20032;-56
2022/06/04 00:51:27;;;;;;;4.90;2.22;;;;;;;15.87;53.31;101794.88;5030244;28;20033;-57
2022/06/04 00:53:56;;;;;;;3.53;2.10;;;;;;;15.84;53.31;101785.34;5044602;28;20033;-56
2022/06/04 00:56:46;;;;;;;2.92;2.03;;;;;;;15.84;53.50;101782.69;5049428;28;20036;-56
2022/06/04 00:59:24;;;;;;;3.33;2.20;;;;;;;15.80;53.68;101786.72;5044838;28;20277;-53
2022/06/04 01:01:52;;;;;;;4.03;2.10;;;;;;;15.75;53.40;101798.00;5043023;28;20024;-56
2022/06/04 01:04:48;;;;;;;4.38;2.45;;;;;;;15.72;53.55;101813.59;5047308;28;20466;-56
2022/06/04 01:07:25;;;;;;;2.33;2.05;;;;;;;15.70;53.70;101831.69;5045872;28;20480;-56
2022/06/04 01:10:32;;;;;;;4.13;2.47;;;;;;;15.68;53.72;101839.06;5044549;28;20063;-56
2022/06/04 01:13:10;;;;;;;5.15;2.20;;;;;;;15.62;53.82;101829.09;5044323;28;20187;-56
2022/06/04 01:15:57;;;;;;;2.95;2.15;;;;;;;15.60;53.86;101842.63;5049475;28;20066;-56
2022/06/04 01:18:37;;;;;;;4.28;2.03;;;;;;;15.59;54.43;101850.84;5044445;28;20029;-56
2022/06/04 01:21:29;;;;;;;5.65;2.40;;;;;;;15.57;54.47;101872.41;5055635;28;20102;-55
2022/06/04 01:24:08;;;;;;;4.50;2.30;;;;;;;15.51;54.68;101878.47;5048196;28;20048;-56
2022/06/04 01:26:51;;;;;;;4.20;2.28;;;;;;;15.48;54.56;101862.78;5043861;28;20109;-56
2022/06/04 01:29:28;;;;;;;4.20;2.42;;;;;;;15.43;54.71;101868.66;5047567;28;20122;-56
2022/06/04 01:32:13;;;;;;;6.88;2.50;;;;;;;15.40;54.58;101855.63;5049367;28;20495;-55
2022/06/04 01:34:45;;;;;;;4.63;2.30;;;;;;;15.34;55.13;101847.50;5041568;28;20102;-56
2022/06/04 01:37:22;;;;;;;5.20;2.30;;;;;;;15.32;55.06;101844.97;5042542;28;20036;-56
2022/06/04 01:42:36;;;;;;;4.30;2.65;;;;;;;15.27;55.41;101849.19;5046806;28;20040;-56
2022/06/04 01:45:07;;;;;;;3.90;2.97;;;;;;;15.26;55.56;101860.91;5045264;28;20630;-57
2022/06/04 01:47:35;;;;;;;5.25;2.65;;;;;;;15.23;55.38;101859.41;5044415;28;20064;-57
2022/06/04 01:50:03;;;;;;;5.15;2.70;;;;;;;15.21;55.56;101864.13;5047043;28;20124;-57
2022/06/04 01:52:33;;;;;;;7.93;2.78;;;;;;;15.15;55.75;101857.63;5042176;28;20477;-57
2022/06/04 01:55:10;;;;;;;3.83;2.60;;;;;;;15.16;55.41;101861.97;5045595;28;20052;-57
2022/06/04 01:57:41;;;;;;;5.13;2.70;;;;;;;15.14;55.89;101864.00;5048692;28;20021;-56
2022/06/04 02:00:23;;;;;;;4.25;2.20;;;;;;;15.13;55.87;101878.38;5042575;28;20488;-57
2022/06/04 02:02:55;;;;;;;4.97;2.65;;;;;;;15.08;56.23;101882.59;5048591;28;20428;-57
2022/06/04 02:05:27;;;;;;;4.50;3.00;;;;;;;15.05;56.34;101885.63;5045222;28;20095;-56
2022/06/04 02:07:54;;;;;;;4.82;2.47;;;;;;;15.03;56.08;101893.78;5046282;28;20128;-56
2022/06/04 02:10:27;;;;;;;3.90;2.67;;;;;;;15.02;56.45;101892.13;5044473;28;20483;-56
2022/06/04 02:12:56;;;;;;;5.55;2.70;;;;;;;15.01;56.03;101882.44;5049554;28;20024;-57
2022/06/04 02:15:27;;;;;;;6.70;2.70;;;;;;;14.97;56.36;101878.44;5043182;28;20520;-56
2022/06/04 02:17:57;;;;;;;4.32;2.50;;;;;;;14.98;56.65;101877.44;5047464;28;20032;-57
2022/06/04 02:20:24;;;;;;;4.45;2.60;;;;;;;14.96;56.24;101876.78;5044953;28;20230;-57
2022/06/04 02:22:50;;;;;;;7.28;3.00;;;;;;;14.99;56.09;101871.06;5048248;28;20032;-57
2022/06/04 02:25:16;;;;;;;3.85;2.58;;;;;;;14.98;56.32;101871.25;5043672;28;20377;-56
2022/06/04 02:27:43;;;;;;;5.03;2.53;;;;;;;14.94;56.31;101870.75;5044838;28;20132;-57
2022/06/04 02:30:10;;;;;;;7.20;2.92;;;;;;;14.93;56.02;101874.44;5045438;28;20028;-55
2022/06/04 02:32:53;;;;;;;5.72;2.53;;;;;;;14.95;56.01;101874.28;5043203;28;20043;-57
2022/06/04 02:35:24;;;;;;;4.60;2.53;;;;;;;14.94;55.88;101875.28;5046773;28;20037;-57
2022/06/04 02:38:11;;;;;;;4.00;2.53;;;;;;;14.95;56.17;101871.59;5046576;28;20021;-56
2022/06/04 02:40:45;;;;;;;4.70;2.63;;;;;;;14.87;55.97;101873.31;5046135;28;20025;-56
2022/06/04 02:43:39;;;;;;;3.80;2.45;;;;;;;14.86;56.20;101866.28;5048208;28;20036;-57
2022/06/04 02:46:17;;;;;;;6.32;2.97;;;;;;;14.86;55.99;101860.94;5029451;28;20033;-56
2022/06/04 02:49:02;;;;;;;4.63;3.08;;;;;;;14.87;55.95;101857.25;5043422;28;20064;-55
2022/06/04 02:51:42;;;;;;;5.60;2.70;;;;;;;14.81;56.29;101865.16;5042331;28;20104;-56
2022/06/04 02:54:23;;;;;;;5.13;2.50;;;;;;;14.83;56.25;101858.63;5045035;28;20040;-57
2022/06/04 02:56:51;;;;;;;5.72;3.15;;;;;;;14.80;56.38;101850.13;5034978;28;20382;-57
2022/06/04 02:59:20;;;;;;;4.93;2.72;;;;;;;14.76;56.15;101840.78;5044952;28;20416;-56
2022/06/04 03:01:48;;;;;;;4.50;2.63;;;;;;;14.77;56.19;101831.75;5044298;28;20020;-57
2022/06/04 03:04:13;;;;;;;5.28;2.78;;;;;;;14.72;56.15;101821.53;5041780;28;20021;-56
2022/06/04 03:06:39;;;;;;;19.73;3.42;;;;;;;14.70;56.55;101807.50;5044060;28;20035;-58
2022/06/04 03:09:09;;;;;;;5.35;2.83;;;;;;;14.69;56.28;101821.91;5047541;28;20029;-56
2022/06/04 03:11:42;;;;;;;5.45;3.03;;;;;;;14.68;56.73;101824.75;5045083;28;20049;-56
2022/06/04 03:14:07;;;;;;;7.03;3.38;;;;;;;14.66;56.71;101816.06;5041847;28;20020;-56
2022/06/04 03:16:36;;;;;;;7.93;3.40;;;;;;;14.62;56.33;101814.75;5041630;28;20029;-55
2022/06/04 03:19:02;;;;;;;5.85;3.30;;;;;;;14.57;56.65;101816.09;5039948;28;20028;-54
2022/06/04 03:21:28;;;;;;;6.45;3.20;;;;;;;14.55;57.10;101817.28;5045327;28;20025;-56
2022/06/04 03:23:53;;;;;;;6.28;3.70;;;;;;;14.49;57.09;101801.94;5048064;28;20029;-57
2022/06/04 03:26:19;;;;;;;7.13;3.00;;;;;;;14.44;57.55;101809.63;5043407;28;20035;-56
2022/06/04 03:28:44;;;;;;;5.75;3.40;;;;;;;14.45;57.88;101811.28;5043820;28;20031;-56
2022/06/04 03:31:09;;;;;;;5.20;3.15;;;;;;;14.41;58.01;101805.41;5044982;28;20362;-57
2022/06/04 03:33:35;;;;;;;6.05;3.17;;;;;;;14.41;57.97;101812.59;5043382;28;20102;-56
2022/06/04 03:36:00;;;;;;;5.70;3.30;;;;;;;14.40;58.02;101803.75;5046407;28;20048;-55
2022/06/04 03:38:25;;;;;;;5.20;3.35;;;;;;;14.38;58.11;101800.44;5043944;28;20119;-57
2022/06/04 03:40:51;;;;;;;4.97;3.30;;;;;;;14.36;58.57;101799.75;5043669;28;20364;-57
2022/06/04 03:43:16;;;;;;;5.82;3.50;;;;;;;14.35;58.56;101795.44;5042900;28;20033;-56
2022/06/04 03:45:41;;;;;;;7.32;3.92;;;;;;;14.35;58.22;101797.25;5045158;28;20028;-56
2022/06/04 03:48:07;;;;;;;5.38;3.35;;;;;;;14.34;58.48;101807.13;5047203;28;20052;-56
2022/06/04 03:50:32;;;;;;;6.30;3.58;;;;;;;14.33;58.89;101809.97;5041360;28;20055;-56
2022/06/04 03:52:57;;;;;;;5.55;3.65;;;;;;;14.33;58.87;101820.66;5044344;28;20063;-56
2022/06/04 03:55:24;;;;;;;5.35;3.60;;;;;;;14.33;59.09;101820.66;5044488;28;20522;-56
2022/06/04 03:57:50;;;;;;;7.57;4.00;;;;;;;14.32;59.12;101833.19;5042518;28;20064;-55
2022/06/04 04:00:20;;;;;;;5.57;3.50;;;;;;;14.29;59.65;101832.69;5044695;28;20521;-56
2022/06/04 04:02:50;;;;;;;6.93;3.80;;;;;;;14.20;59.67;101835.38;5045475;28;20060;-56
2022/06/04 04:05:18;;;;;;;7.45;4.13;;;;;;;14.16;60.32;101839.38;5025283;28;20059;-56
2022/06/04 04:07:43;;;;;;;8.13;4.18;;;;;;;14.14;60.43;101841.38;5041988;28;20066;-56
2022/06/04 04:10:10;;;;;;;6.65;4.10;;;;;;;14.13;60.58;101849.56;5045673;28;20021;-56
2022/06/04 04:12:36;;;;;;;7.30;4.15;;;;;;;14.10;60.59;101840.06;5045174;28;20056;-56
2022/06/04 04:15:02;;;;;;;9.05;4.40;;;;;;;14.08;61.10;101849.25;5046518;28;20063;-56
2022/06/04 04:17:27;;;;;;;7.30;4.10;;;;;;;14.07;60.88;101845.75;5045882;28;20082;-55
2022/06/04 04:19:52;;;;;;;7.25;4.35;;;;;;;14.09;61.16;101840.22;5045314;28;20119;-56
2022/06/04 04:22:19;;;;;;;7.78;4.40;;;;;;;14.06;61.55;101848.59;5046038;28;20588;-57
2022/06/04 04:24:44;;;;;;;6.20;4.50;;;;;;;14.07;61.49;101851.09;5046095;28;20033;-56
2022/06/04 04:27:11;;;;;;;7.57;4.47;;;;;;;14.07;62.02;101852.94;5047080;28;20032;-56
2022/06/04 04:29:37;;;;;;;8.65;4.70;;;;;;;14.06;62.17;101864.63;5048324;28;20630;-56
2022/06/04 04:32:02;;;;;;;8.63;4.88;;;;;;;14.07;61.68;101858.25;5045630;28;20504;-56
2022/06/04 04:34:27;;;;;;;9.63;4.75;;;;;;;14.08;62.15;101867.94;5049781;28;20021;-56
2022/06/04 04:36:53;;;;;;;8.00;4.22;;;;;;;14.09;62.34;101866.94;5048487;28;20032;-55
2022/06/04 04:39:18;;;;;;;9.65;4.70;;;;;;;14.10;62.01;101864.09;5050852;28;20158;-56
2022/06/04 04:41:43;;;;;;;7.28;4.75;;;;;;;14.13;61.88;101869.09;5045368;28;20467;-56
2022/06/04 04:44:08;;;;;;;9.07;4.40;;;;;;;14.16;61.95;101859.91;5048590;28;20600;-55
2022/06/04 04:46:34;;;;;;;8.55;4.80;;;;;;;14.14;62.42;101861.94;5046446;28;20032;-56
2022/06/04 04:49:00;;;;;;;6.22;4.30;;;;;;;14.15;62.71;101872.44;5049085;28;20546;-55
2022/06/04 04:51:26;;;;;;;7.55;4.57;;;;;;;14.17;62.32;101864.28;5048578;28;20025;-53
2022/06/04 04:53:53;;;;;;;8.00;5.07;;;;;;;14.21;62.76;101866.44;5048787;28;20020;-56
2022/06/04 04:56:21;;;;;;;7.88;4.85;;;;;;;14.21;62.64;101866.44;5046272;28;20036;-56
2022/06/04 04:58:47;;;;;;;10.45;4.80;;;;;;;14.21;62.68;101866.44;5047958;28;20036;-56
2022/06/04 05:01:24;;;;;;;10.88;5.38;;;;;;;14.29;63.31;101878.94;5042927;28;20029;-56
2022/06/04 05:03:50;;;;;;;8.25;4.78;;;;;;;14.31;63.11;101890.31;5045987;28;20488;-56
2022/06/04 05:06:17;;;;;;;11.52;4.80;;;;;;;14.29;63.30;101884.28;5047791;28;20029;-56
2022/06/04 05:08:43;;;;;;;7.68;4.93;;;;;;;14.32;63.32;101883.94;5048045;28;20029;-55
2022/06/04 05:11:14;;;;;;;8.45;4.90;;;;;;;14.28;63.75;101879.97;5044860;28;20040;-54
2022/06/04 05:13:40;;;;;;;8.70;4.82;;;;;;;14.26;63.62;101884.63;5041254;28;20029;-54
2022/06/04 05:16:05;;;;;;;10.50;5.40;;;;;;;14.23;63.78;101877.78;5044605;28;20036;-56
2022/06/04 05:18:32;;;;;;;10.80;5.38;;;;;;;14.24;63.95;101870.63;5047094;28;20037;-55
2022/06/04 05:21:22;;;;;;;11.77;5.53;;;;;;;14.24;64.31;101871.44;5045755;28;20127;-56
2022/06/04 05:23:48;;;;;;;11.85;5.75;;;;;;;14.19;64.36;101872.97;5051354;28;20033;-56
2022/06/04 05:26:13;;;;;;;9.82;5.65;;;;;;;14.15;64.74;101884.97;5043215;28;20158;-55
2022/06/04 05:28:39;;;;;;;9.77;5.97;;;;;;;14.14;64.39;101875.28;5046268;28;20141;-56
2022/06/04 05:31:04;;;;;;;9.80;6.18;;;;;;;14.13;64.78;101877.13;5048835;28;20113;-54
2022/06/04 05:33:29;;;;;;;11.00;6.05;;;;;;;14.14;65.02;101884.13;5044848;28;20387;-56
2022/06/04 05:35:55;;;;;;;8.95;5.50;;;;;;;14.10;65.11;101885.47;5044250;28;20472;-56
2022/06/04 05:38:21;;;;;;;8.90;6.07;;;;;;;14.12;65.10;101885.31;5048055;28;20415;-55
2022/06/04 05:40:46;;;;;;;10.40;6.50;;;;;;;14.09;65.57;101886.47;5047649;28;20454;-56
2022/06/04 05:43:12;;;;;;;8.98;6.28;;;;;;;14.08;65.47;101887.47;5046862;28;20442;-56
2022/06/04 05:45:37;;;;;;;16.48;6.80;;;;;;;14.10;66.08;101892.66;5041151;28;20040;-55
2022/06/04 05:48:03;;;;;;;11.32;6.43;;;;;;;14.13;66.14;101898.50;5042374;28;20112;-55
2022/06/04 05:50:28;;;;;;;9.02;6.32;;;;;;;14.13;66.38;101900.31;5046606;28;20033;-56
2022/06/04 05:52:54;;;;;;;12.13;6.32;;;;;;;14.13;66.13;101908.34;5046906;28;20031;-55
2022/06/04 05:55:19;;;;;;;8.35;6.13;;;;;;;14.12;66.38;101923.53;5048011;28;20499;-56
2022/06/04 05:57:44;;;;;;;11.32;6.43;;;;;;;14.13;66.53;101922.53;5046392;28;20036;-56
2022/06/04 06:00:10;;;;;;;11.35;6.25;;;;;;;14.18;66.26;101930.06;5042267;28;20163;-56
2022/06/04 06:02:36;;;;;;;15.52;6.88;;;;;;;14.20;66.14;101925.41;5041748;28;20032;-56
2022/06/04 06:05:03;;;;;;;8.60;6.30;;;;;;;14.21;66.09;101914.53;5049116;28;20162;-56
2022/06/04 06:07:29;;;;;;;9.07;6.13;;;;;;;14.25;66.50;101913.19;5045934;28;20024;-57
2022/06/04 06:09:54;;;;;;;12.93;7.00;;;;;;;14.30;66.63;101922.53;5046759;28;20420;-57
2022/06/04 06:12:19;;;;;;;10.80;7.30;;;;;;;14.32;66.39;101916.03;5043727;28;20152;-57
2022/06/04 06:14:45;;;;;;;17.58;6.93;;;;;;;14.34;66.26;101915.84;5047897;28;20029;-56
2022/06/04 06:17:10;;;;;;;11.68;6.63;;;;;;;14.35;66.18;101920.19;5050839;28;20045;-57
2022/06/04 06:19:35;;;;;;;30.60;7.80;;;;;;;14.35;65.84;101931.72;5044031;28;20226;-56
2022/06/04 06:22:01;;;;;;;10.55;7.13;;;;;;;14.34;66.26;101932.72;5048018;28;20036;-56
2022/06/04 06:24:26;;;;;;;13.98;7.00;;;;;;;14.30;66.07;101928.72;5041850;28;20041;-56
2022/06/04 06:26:54;;;;;;;12.80;6.90;;;;;;;14.32;66.10;101942.75;5044045;28;20041;-55
2022/06/04 06:29:26;;;;;;;13.85;7.32;;;;;;;14.37;66.34;101929.69;5057185;28;20025;-55
2022/06/04 06:31:51;;;;;;;12.68;7.35;;;;;;;14.32;65.88;101932.06;5041300;28;20112;-55
2022/06/04 06:34:16;;;;;;;12.75;7.28;;;;;;;14.31;66.23;101933.06;5048807;28;20155;-56
2022/06/04 06:36:42;;;;;;;8.55;6.95;;;;;;;14.33;66.18;101936.38;5042366;28;20504;-56
2022/06/04 06:39:08;;;;;;;14.60;7.35;;;;;;;14.38;66.15;101938.56;5046742;28;20025;-56
2022/06/04 06:41:34;;;;;;;13.43;7.45;;;;;;;14.40;66.00;101942.72;5046853;28;20025;-56
2022/06/04 06:44:00;;;;;;;11.13;7.22;;;;;;;14.42;66.21;101942.56;5047930;28;20065;-55
2022/06/04 06:46:30;;;;;;;11.38;7.15;;;;;;;14.44;65.96;101936.06;5047558;28;20025;-56
2022/06/04 06:49:01;;;;;;;15.40;7.57;;;;;;;14.47;66.09;101937.59;5046856;28;20078;-55
2022/06/04 06:51:34;;;;;;;12.38;7.85;;;;;;;14.51;66.33;101942.44;5047683;28;20031;-56
2022/06/04 06:53:59;;;;;;;12.98;7.82;;;;;;;14.50;66.46;101937.25;5040358;28;20397;-56
2022/06/04 06:56:31;;;;;;;11.18;7.30;;;;;;;14.56;66.35;101950.78;5045857;28;20031;-56
2022/06/04 06:58:59;;;;;;;11.95;7.43;;;;;;;14.59;66.24;101954.09;5046056;28;20021;-56
2022/06/04 07:01:26;;;;;;;11.88;8.00;;;;;;;14.65;66.11;101958.78;5043385;28;20104;-56
2022/06/04 07:03:52;;;;;;;13.50;7.28;;;;;;;14.71;65.68;101955.41;5048114;28;20032;-55
2022/06/04 07:06:29;;;;;;;16.63;7.45;;;;;;;14.80;65.64;101959.75;5047275;28;20381;-54
2022/06/04 07:08:55;;;;;;;12.50;7.53;;;;;;;14.82;65.84;101947.88;5044934;28;20017;-57
2022/06/04 07:11:20;;;;;;;13.93;8.18;;;;;;;14.92;65.66;101955.69;5039426;28;20032;-57
2022/06/04 07:13:45;;;;;;;13.77;7.80;;;;;;;14.98;65.91;101949.66;5044900;28;20028;-55
2022/06/04 07:16:11;;;;;;;16.42;7.25;;;;;;;15.05;65.67;101950.66;5040452;28;20500;-55
2022/06/04 07:18:36;;;;;;;14.45;7.88;;;;;;;15.11;65.25;101943.78;5044120;28;20526;-54
2022/06/04 07:21:05;;;;;;;11.40;7.40;;;;;;;15.19;65.17;101941.06;5047611;28;20020;-56
2022/06/04 07:23:33;;;;;;;13.75;7.90;;;;;;;15.26;64.96;101935.84;5047226;28;20059;-56
2022/06/04 07:25:59;;;;;;;14.45;7.63;;;;;;;15.29;64.78;101938.16;5044423;28;20104;-56
2022/06/04 07:28:25;;;;;;;14.02;7.90;;;;;;;15.37;64.26;101944.31;5045869;28;20456;-56
2022/06/04 07:30:50;;;;;;;14.00;7.82;;;;;;;15.44;64.14;101939.09;5045187;28;20110;-56
2022/06/04 07:33:15;;;;;;;13.02;7.88;;;;;;;15.50;64.39;101949.09;5045441;28;20037;-56
2022/06/04 07:35:47;;;;;;;13.45;7.70;;;;;;;15.61;64.15;101945.22;5044033;28;20024;-56
2022/06/04 07:38:12;;;;;;;14.05;7.70;;;;;;;15.73;64.16;101955.38;5041052;28;20025;-56
2022/06/04 07:40:38;;;;;;;15.30;8.52;;;;;;;15.71;63.86;101951.19;5047091;28;20090;-55
2022/06/04 07:43:03;;;;;;;12.05;8.07;;;;;;;15.69;63.58;101946.03;5045354;28;20048;-55
2022/06/04 07:45:29;;;;;;;10.27;7.68;;;;;;;15.71;63.31;101952.03;5047840;28;20021;-56
2022/06/04 07:47:54;;;;;;;15.55;7.53;;;;;;;15.75;63.09;101966.72;5047834;28;20029;-56
2022/06/04 07:50:19;;;;;;;11.13;7.10;;;;;;;15.78;63.27;101971.72;5049117;28;20168;-56
2022/06/04 07:52:44;;;;;;;15.50;8.05;;;;;;;15.77;63.43;101962.03;5043075;28;20082;-57
2022/06/04 07:55:10;;;;;;;13.20;7.63;;;;;;;15.68;63.19;101957.75;5054838;28;20040;-57
2022/06/04 07:57:37;;;;;;;12.38;7.72;;;;;;;15.71;63.13;101969.94;5037562;28;20025;-56
2022/06/04 08:00:05;;;;;;;12.32;7.88;;;;;;;15.70;63.19;101965.59;5042554;28;20045;-56
2022/06/04 08:02:30;;;;;;;13.35;7.82;;;;;;;15.70;63.61;101955.72;5048236;28;20040;-57
2022/06/04 08:04:55;;;;;;;11.68;7.65;;;;;;;15.74;63.18;101957.03;5048262;28;20048;-57
2022/06/04 08:07:22;;;;;;;13.02;8.20;;;;;;;15.79;63.39;101961.84;5049397;28;20502;-57
2022/06/04 08:09:48;;;;;;;12.93;8.63;;;;;;;15.82;62.86;101974.06;5047205;28;20564;-57
2022/06/04 08:12:14;;;;;;;11.82;8.00;;;;;;;15.85;62.69;101971.84;5049485;28;20111;-56
2022/06/04 08:14:40;;;;;;;10.55;7.90;;;;;;;15.85;62.62;101969.16;5047901;28;20024;-57
2022/06/04 08:17:06;;;;;;;14.18;7.90;;;;;;;15.91;62.82;101967.66;5049803;28;20594;-57
2022/06/04 08:19:34;;;;;;;13.10;7.95;;;;;;;15.95;62.57;101963.59;5050754;28;20028;-57
2022/06/04 08:22:00;;;;;;;13.00;7.60;;;;;;;16.05;62.43;101964.19;5048885;28;20032;-57
2022/06/04 08:24:26;;;;;;;12.15;8.05;;;;;;;16.06;63.11;101949.78;5032044;28;20055;-56
2022/06/04 08:26:58;;;;;;;10.32;7.32;;;;;;;16.05;62.51;101948.09;5041409;28;20046;-56
2022/06/04 08:29:24;;;;;;;11.95;7.70;;;;;;;16.08;62.70;101948.56;5048033;28;20100;-55
2022/06/04 08:31:50;;;;;;;11.82;8.02;;;;;;;16.11;63.01;101963.47;5049220;28;20075;-55
2022/06/04 08:34:15;;;;;;;15.27;8.02;;;;;;;16.14;63.38;101946.19;5047042;28;20025;-55
2022/06/04 08:36:41;;;;;;;14.95;8.25;;;;;;;16.22;63.25;101960.38;5050478;28;20032;-56
2022/06/04 08:39:07;;;;;;;15.15;8.68;;;;;;;16.31;62.83;101959.28;5054114;28;20065;-56
2022/06/04 08:41:54;;;;;;;12.93;8.50;;;;;;;16.46;62.67;101961.16;5055887;28;20021;-56
2022/06/04 08:44:23;;;;;;;13.35;8.80;;;;;;;16.57;62.89;101961.56;5048672;28;20037;-56
2022/06/04 08:46:53;;;;;;;13.73;8.20;;;;;;;16.68;63.36;101960.31;5051674;28;20028;-57
2022/06/04 08:49:32;;;;;;;13.48;8.10;;;;;;;16.83;62.44;101947.75;5048097;28;20071;-57
2022/06/04 08:52:02;;;;;;;14.02;8.02;;;;;;;16.91;61.96;101950.34;5044361;28;20111;-56
2022/06/04 08:57:35;;;;;;;11.07;8.27;;;;;;;17.21;61.42;101944.94;5042329;28;20127;-56
2022/06/04 09:00:01;;;;;;;11.53;8.17;;;;;;;17.38;61.18;101957.16;5045281;28;20121;-56
2022/06/04 09:02:44;;;;;;;14.13;7.72;;;;;;;17.43;60.03;101960.09;5050413;28;20121;-57
2022/06/04 09:05:48;;;;;;;13.15;8.55;;;;;;;17.53;59.74;101975.91;5041974;28;20024;-56
2022/06/04 09:08:26;;;;;;;12.35;8.48;;;;;;;17.56;59.56;101971.00;5014155;28;20087;-57
2022/06/04 09:10:57;;;;;;;10.50;7.83;;;;;;;17.63;59.75;101969.19;5051915;28;20020;-56
2022/06/04 09:13:36;;;;;;;14.00;8.27;;;;;;;17.65;59.19;101980.63;5049224;28;20298;-56
2022/06/04 09:16:30;;;;;;;17.42;8.60;;;;;;;17.79;59.60;101983.47;5055529;28;20376;-57
2022/06/04 09:18:58;;;;;;;13.10;8.48;;;;;;;17.83;59.22;101988.28;5036708;28;20090;-56
2022/06/04 09:21:28;;;;;;;15.40;8.90;;;;;;;18.01;59.20;101973.59;5049421;28;20056;-56
2022/06/04 09:23:54;;;;;;;11.27;7.93;;;;;;;18.08;58.54;101969.94;5046758;28;20025;-57
2022/06/04 09:26:55;;;;;;;12.50;8.60;;;;;;;18.19;58.57;101966.69;5050399;28;20603;-56
2022/06/04 09:29:33;;;;;;;15.20;9.13;;;;;;;18.22;58.24;101971.72;5026853;28;20052;-56
2022/06/04 09:32:08;;;;;;;13.63;8.57;;;;;;;18.48;58.19;101962.19;5049196;28;20566;-57
2022/06/04 09:34:36;;;;;;;12.90;8.52;;;;;;;18.89;58.21;101975.78;5049574;28;20116;-55
2022/06/04 09:37:04;;;;;;;12.15;8.45;;;;;;;19.08;58.04;101979.59;5047594;28;20078;-56
2022/06/04 09:39:32;;;;;;;11.05;8.40;;;;;;;19.15;56.79;101978.63;5045839;28;20036;-57
2022/06/04 09:42:00;;;;;;;17.60;8.73;;;;;;;19.18;56.34;101967.44;5054179;28;20074;-57
2022/06/04 09:44:28;;;;;;;13.63;8.88;;;;;;;19.15;55.76;101961.63;5049962;28;20025;-55
2022/06/04 09:47:17;;;;;;;11.82;8.10;;;;;;;19.28;55.78;101975.16;5059919;28;20499;-55
2022/06/04 09:49:50;;;;;;;14.52;8.57;;;;;;;19.33;56.15;101972.69;5047991;28;20025;-56
2022/06/04 09:52:21;;;;;;;15.70;8.63;;;;;;;19.42;55.74;101984.13;5048035;28;20044;-55
2022/06/04 09:55:19;;;;;;;15.90;8.77;;;;;;;19.57;55.62;101979.44;5051376;28;20036;-56
2022/06/04 09:57:59;;;;;;;12.20;8.65;;;;;;;19.88;55.77;101978.06;5048526;28;20100;-56
2022/06/04 10:00:29;;;;;;;12.95;8.73;;;;;;;20.14;55.09;101971.91;5047662;28;20013;-55
2022/06/04 10:03:00;;;;;;;15.27;8.30;;;;;;;20.30;54.18;101977.72;5048055;28;20108;-56
2022/06/04 10:05:30;;;;;;;14.85;8.40;;;;;;;20.33;54.16;101987.28;5057629;28;20096;-56
2022/06/04 10:07:56;;;;;;;13.30;9.00;;;;;;;20.37;53.66;101980.41;5047663;28;20021;-57
2022/06/04 10:10:35;;;;;;;12.77;8.40;;;;;;;20.40;53.12;101990.81;5048709;28;20074;-55
2022/06/04 10:15:56;;;;;;;14.38;8.35;;;;;;;20.51;53.58;101986.66;5051904;28;20089;-55
2022/06/04 10:18:30;;;;;;;12.35;8.05;;;;;;;20.61;53.00;101989.78;5046767;28;20013;-55
2022/06/04 10:21:04;;;;;;;12.93;8.65;;;;;;;20.60;52.41;101978.16;5050447;28;20037;-56
2022/06/04 10:23:40;;;;;;;12.52;8.57;;;;;;;20.67;52.25;101986.25;5056186;28;20021;-54
2022/06/04 10:26:17;;;;;;;12.27;8.52;;;;;;;20.78;52.09;101980.19;5038808;28;20078;-56
2022/06/04 10:29:08;;;;;;;12.35;8.77;;;;;;;20.85;51.80;101991.00;5037646;28;20087;-55
2022/06/04 10:31:52;;;;;;;11.63;8.52;;;;;;;20.86;51.36;101992.66;5043671;28;20507;-54
2022/06/04 10:34:30;;;;;;;14.73;10.52;;;;;;;20.79;51.81;101978.34;5045308;28;20067;-56
2022/06/04 10:37:12;;;;;;;12.80;9.27;;;;;;;20.77;51.79;101973.16;5040245;28;20025;-55
2022/06/04 10:40:00;;;;;;;12.55;9.05;;;;;;;20.75;51.67;101980.63;5047713;28;20189;-56
2022/06/04 10:42:53;;;;;;;12.70;9.02;;;;;;;20.64;51.85;101976.69;5043968;28;20547;-57
2022/06/04 10:45:29;;;;;;;13.80;9.07;;;;;;;20.61;52.22;101977.13;5045622;28;20708;-56
2022/06/04 10:48:00;;;;;;;15.57;8.73;;;;;;;20.66;51.84;101976.50;5047042;28;20416;-56
2022/06/04 10:53:30;;;;;;;12.77;8.73;;;;;;;20.72;51.72;101981.88;5039031;28;20055;-55
2022/06/04 10:56:05;;;;;;;12.68;7.90;;;;;;;20.71;51.22;101982.09;5047965;28;20017;-55
2022/06/04 10:58:46;;;;;;;15.13;9.07;;;;;;;20.55;51.82;101982.53;5045321;28;20021;-56
2022/06/04 11:01:24;;;;;;;12.55;7.78;;;;;;;20.57;51.75;101985.84;5046038;28;20375;-56
2022/06/04 11:04:00;;;;;;;10.45;8.15;;;;;;;20.59;51.08;101991.88;5048473;28;20036;-56
2022/06/04 11:06:31;;;;;;;10.68;7.85;;;;;;;20.70;51.28;101981.25;5044480;28;20028;-55
2022/06/04 11:09:15;;;;;;;10.50;8.07;;;;;;;20.80;51.39;101988.91;5052102;28;20087;-56
2022/06/04 11:11:50;;;;;;;13.98;8.43;;;;;;;20.76;51.44;101986.84;5042956;28;20035;-55
2022/06/04 11:14:25;;;;;;;13.35;7.68;;;;;;;20.76;51.05;101990.38;5047170;28;20028;-56
2022/06/04 11:17:05;;;;;;;14.45;8.13;;;;;;;20.83;51.57;101983.13;5044204;28;20115;-56
2022/06/04 11:19:47;;;;;;;16.77;7.78;;;;;;;20.86;51.52;101989.97;5044188;28;20519;-56
2022/06/04 11:22:20;;;;;;;15.02;8.30;;;;;;;20.96;51.40;101982.25;5046192;28;20032;-56
2022/06/04 11:24:52;;;;;;;11.70;8.43;;;;;;;20.95;51.54;101978.72;5042162;28;20300;-56
2022/06/04 11:27:25;;;;;;;10.68;8.05;;;;;;;21.04;51.50;101982.84;5040751;28;20033;-57
2022/06/04 11:29:53;;;;;;;11.77;7.53;;;;;;;21.19;51.83;101977.22;5044946;28;20048;-56
2022/06/04 11:32:29;;;;;;;12.00;8.10;;;;;;;21.24;51.45;101972.03;5043830;28;20025;-56
2022/06/04 11:35:09;;;;;;;11.00;7.90;;;;;;;21.35;50.96;101981.31;5039555;28;20033;-56
2022/06/04 11:37:53;;;;;;;11.75;7.93;;;;;;;21.62;51.63;101977.44;5046621;28;20044;-55
2022/06/04 11:40:37;;;;;;;10.10;7.90;;;;;;;21.80;51.54;101978.63;5050022;28;20032;-56
2022/06/04 11:43:27;;;;;;;13.52;7.78;;;;;;;22.02;50.54;101973.69;5053404;28;20033;-56
2022/06/04 11:46:05;;;;;;;12.00;8.15;;;;;;;22.21;50.41;101976.28;5049370;28;20512;-55
2022/06/04 11:48:52;;;;;;;9.90;7.32;;;;;;;22.46;50.81;101978.16;5047813;28;20595;-55
2022/06/04 11:51:49;;;;;;;11.48;7.20;;;;;;;22.48;50.38;101971.47;5050659;28;20044;-56
2022/06/04 11:54:45;;;;;;;11.50;7.10;;;;;;;22.51;49.58;101970.19;5046717;28;20039;-58
2022/06/04 11:57:45;;;;;;;12.57;7.72;;;;;;;22.48;49.55;101963.34;5047564;28;20068;-56